createdAt,value
2023-02-18T00:00:05.019Z,78.32
2023-02-18T00:00:23.556Z,78.24
2023-02-18T00:00:35.573Z,78.64
2023-02-18T00:00:47.495Z,78.71
2023-02-18T00:00:59.894Z,78.76
2023-02-18T00:01:14.306Z,78.68
2023-02-18T00:01:26.816Z,78.73
2023-02-18T00:01:39.069Z,78.70
2023-02-18T00:01:51.003Z,78.86
2023-02-18T00:02:04.338Z,78.80
2023-02-18T00:02:16.781Z,78.82
2023-02-18T00:02:28.718Z,78.89
2023-02-18T00:02:40.761Z,78.85
2023-02-18T00:02:53.053Z,78.81
2023-02-18T00:03:04.985Z,78.74
2023-02-18T00:03:17.030Z,78.81
2023-02-18T00:03:30.064Z,79.19
2023-02-18T00:03:47.406Z,78.75
2023-02-18T00:04:00.461Z,78.99
2023-02-18T00:04:12.458Z,78.28
2023-02-18T00:04:27.603Z,78.15
2023-02-18T00:04:41.951Z,78.15
2023-02-18T00:04:54.935Z,78.38
2023-02-18T00:05:06.969Z,78.61
2023-02-18T00:05:18.975Z,78.47
2023-02-18T00:05:30.929Z,78.73
2023-02-18T00:05:45.028Z,78.87
2023-02-18T00:05:57.152Z,78.53
2023-02-18T00:06:14.646Z,78.42
2023-02-18T00:06:30.297Z,78.38
2023-02-18T00:06:42.220Z,78.42
2023-02-18T00:06:54.142Z,78.59
2023-02-18T00:07:06.066Z,78.48
2023-02-18T00:07:18.199Z,78.55
2023-02-18T00:07:37.241Z,78.95
2023-02-18T00:07:49.362Z,78.74
2023-02-18T00:08:01.370Z,78.77
2023-02-18T00:08:13.319Z,78.80
2023-02-18T00:08:25.286Z,78.71
2023-02-18T00:08:37.225Z,78.64
2023-02-18T00:08:50.402Z,78.72
2023-02-18T00:09:04.150Z,79.09
2023-02-18T00:09:18.963Z,79.32
2023-02-18T00:09:30.922Z,79.09
2023-02-18T00:09:42.824Z,78.79
2023-02-18T00:09:54.843Z,78.79
2023-02-18T00:10:11.118Z,78.50
2023-02-18T00:10:23.151Z,78.50
2023-02-18T00:10:35.045Z,78.48
2023-02-18T00:10:47.331Z,78.55
2023-02-18T00:10:59.261Z,78.31
2023-02-18T00:11:12.263Z,78.24
2023-02-18T00:11:24.888Z,78.05
2023-02-18T00:11:37.915Z,77.91
2023-02-18T00:11:49.899Z,77.93
2023-02-18T00:12:01.840Z,77.64
2023-02-18T00:12:13.773Z,77.71
2023-02-18T00:12:25.721Z,77.67
2023-02-18T00:12:38.138Z,77.76
2023-02-18T00:12:50.076Z,77.86
2023-02-18T00:13:04.523Z,78.00
2023-02-18T00:13:16.446Z,77.82
2023-02-18T00:13:28.385Z,77.93
2023-02-18T00:13:40.390Z,78.03
2023-02-18T00:13:53.895Z,77.96
2023-02-18T00:14:10.763Z,78.00
2023-02-18T00:14:23.879Z,77.96
2023-02-18T00:14:36.671Z,78.03
2023-02-18T00:14:48.627Z,78.11
2023-02-18T00:15:00.542Z,78.27
2023-02-18T00:15:12.619Z,78.07
2023-02-18T00:15:24.529Z,78.39
2023-02-18T00:15:39.940Z,78.15
2023-02-18T00:15:51.922Z,78.08
2023-02-18T00:16:06.599Z,78.17
2023-02-18T00:16:19.270Z,78.25
2023-02-18T00:16:31.612Z,78.02
2023-02-18T00:16:44.530Z,78.02
2023-02-18T00:16:56.510Z,77.96
2023-02-18T00:17:08.470Z,78.05
2023-02-18T00:17:20.420Z,77.97
2023-02-18T00:17:32.779Z,77.89
2023-02-18T00:17:44.684Z,78.27
2023-02-18T00:17:56.587Z,78.44
2023-02-18T00:18:08.668Z,78.44
2023-02-18T00:18:20.664Z,78.03
2023-02-18T00:18:32.582Z,78.29
2023-02-18T00:18:44.509Z,78.16
2023-02-18T00:19:02.583Z,78.29
2023-02-18T00:19:18.485Z,78.20
2023-02-18T00:19:30.414Z,78.61
2023-02-18T00:19:42.393Z,78.58
2023-02-18T00:19:54.380Z,78.39
2023-02-18T00:20:08.163Z,78.29
2023-02-18T00:20:20.064Z,78.13
2023-02-18T00:20:33.483Z,78.08
2023-02-18T00:20:45.419Z,78.04
2023-02-18T00:20:58.433Z,78.12
2023-02-18T00:21:10.424Z,78.55
2023-02-18T00:21:22.967Z,78.15
2023-02-18T00:21:36.433Z,78.36
2023-02-18T00:21:48.509Z,78.06
2023-02-18T00:22:00.441Z,78.01
2023-02-18T00:22:12.369Z,78.16
2023-02-18T00:22:25.080Z,78.07
2023-02-18T00:22:36.989Z,78.08
2023-02-18T00:22:48.910Z,77.85
2023-02-18T00:23:00.828Z,78.12
2023-02-18T00:23:12.754Z,77.77
2023-02-18T00:23:25.922Z,77.63
2023-02-18T00:23:37.868Z,77.73
2023-02-18T00:23:49.915Z,77.68
2023-02-18T00:24:02.478Z,77.68
2023-02-18T00:24:16.951Z,77.58
2023-02-18T00:24:28.977Z,77.78
2023-02-18T00:24:43.876Z,77.92
2023-02-18T00:24:55.822Z,78.00
2023-02-18T00:25:07.905Z,78.27
2023-02-18T00:25:19.836Z,78.11
2023-02-18T00:25:33.031Z,78.10
2023-02-18T00:25:44.970Z,78.09
2023-02-18T00:26:14.166Z,78.11
2023-02-18T00:26:27.186Z,78.00
2023-02-18T00:26:39.354Z,77.92
2023-02-18T00:26:52.540Z,78.08
2023-02-18T00:27:04.474Z,78.07
2023-02-18T00:27:16.912Z,78.20
2023-02-18T00:27:28.837Z,78.48
2023-02-18T00:27:40.721Z,78.28
2023-02-18T00:27:52.737Z,78.18
2023-02-18T00:28:04.829Z,78.16
2023-02-18T00:28:16.803Z,77.95
2023-02-18T00:28:29.410Z,77.87
2023-02-18T00:28:41.980Z,77.72
2023-02-18T00:28:54.307Z,77.82
2023-02-18T00:29:06.281Z,77.42
2023-02-18T00:29:19.566Z,77.43
2023-02-18T00:29:32.174Z,77.64
2023-02-18T00:29:44.229Z,77.82
2023-02-18T00:29:56.318Z,77.88
2023-02-18T00:30:08.702Z,77.94
2023-02-18T00:30:20.737Z,77.84
2023-02-18T00:30:32.804Z,77.76
2023-02-18T00:30:44.810Z,77.75
2023-02-18T00:30:56.864Z,77.85
2023-02-18T00:31:11.353Z,77.73
2023-02-18T00:31:26.202Z,78.06
2023-02-18T00:31:39.506Z,77.80
2023-02-18T00:31:51.608Z,77.99
2023-02-18T00:32:03.811Z,78.12
2023-02-18T00:32:15.834Z,78.06
2023-02-18T00:32:27.827Z,78.09
2023-02-18T00:32:39.716Z,77.78
2023-02-18T00:32:51.656Z,77.72
2023-02-18T00:33:03.617Z,78.03
2023-02-18T00:33:15.631Z,77.86
2023-02-18T00:33:27.576Z,78.21
2023-02-18T00:33:40.526Z,78.23
2023-02-18T00:33:52.451Z,78.33
2023-02-18T00:34:05.772Z,78.71
2023-02-18T00:34:17.701Z,78.34
2023-02-18T00:34:29.759Z,78.32
2023-02-18T00:34:41.744Z,78.32
2023-02-18T00:34:53.779Z,78.23
2023-02-18T00:35:08.783Z,78.30
2023-02-18T00:35:20.681Z,78.50
2023-02-18T00:35:32.601Z,78.31
2023-02-18T00:35:44.515Z,78.19
2023-02-18T00:36:02.665Z,77.83
2023-02-18T00:36:17.156Z,77.80
2023-02-18T00:36:30.644Z,77.56
2023-02-18T00:36:43.113Z,77.68
2023-02-18T00:36:55.051Z,77.79
2023-02-18T00:37:08.254Z,77.63
2023-02-18T00:37:20.188Z,77.51
2023-02-18T00:37:34.414Z,77.56
2023-02-18T00:37:47.401Z,77.38
2023-02-18T00:37:59.348Z,77.55
2023-02-18T00:38:11.300Z,77.44
2023-02-18T00:38:23.177Z,77.58
2023-02-18T00:38:35.101Z,77.46
2023-02-18T00:38:48.700Z,77.70
2023-02-18T00:39:03.848Z,77.62
2023-02-18T00:39:16.107Z,77.52
2023-02-18T00:39:28.011Z,77.37
2023-02-18T00:39:39.987Z,77.68
2023-02-18T00:39:52.049Z,77.43
2023-02-18T00:40:04.502Z,77.45
2023-02-18T00:40:16.444Z,77.44
2023-02-18T00:40:31.440Z,77.96
2023-02-18T00:40:43.502Z,77.72
2023-02-18T00:40:55.445Z,77.75
2023-02-18T00:41:07.335Z,77.92
2023-02-18T00:41:20.674Z,77.98
2023-02-18T00:41:33.804Z,77.91
2023-02-18T00:41:45.817Z,77.75
2023-02-18T00:41:57.765Z,77.98
2023-02-18T00:42:09.859Z,77.68
2023-02-18T00:42:21.863Z,77.87
2023-02-18T00:42:33.970Z,77.76
2023-02-18T00:42:45.928Z,77.69
2023-02-18T00:42:57.888Z,77.90
2023-02-18T00:43:13.358Z,78.11
2023-02-18T00:43:25.706Z,77.60
2023-02-18T00:43:37.636Z,78.18
2023-02-18T00:43:49.836Z,78.03
2023-02-18T00:44:01.821Z,78.02
2023-02-18T00:44:13.787Z,77.99
2023-02-18T00:44:25.716Z,77.80
2023-02-18T00:44:37.705Z,77.78
2023-02-18T00:44:49.655Z,77.59
2023-02-18T00:45:01.590Z,77.79
2023-02-18T00:45:13.512Z,77.58
2023-02-18T00:45:25.391Z,77.62
2023-02-18T00:45:37.333Z,77.72
2023-02-18T00:45:49.288Z,77.83
2023-02-18T00:46:02.132Z,77.72
2023-02-18T00:46:14.272Z,77.50
2023-02-18T00:46:27.239Z,77.55
2023-02-18T00:46:40.741Z,77.32
2023-02-18T00:46:53.326Z,77.19
2023-02-18T00:47:05.297Z,77.33
2023-02-18T00:47:18.037Z,77.19
2023-02-18T00:47:29.946Z,77.10
2023-02-18T00:47:41.899Z,77.38
2023-02-18T00:47:53.812Z,77.46
2023-02-18T00:48:05.816Z,77.34
2023-02-18T00:48:17.774Z,77.61
2023-02-18T00:48:29.723Z,77.69
2023-02-18T00:48:42.235Z,77.78
2023-02-18T00:48:55.285Z,77.57
2023-02-18T00:49:07.819Z,77.57
2023-02-18T00:49:19.718Z,77.46
2023-02-18T00:49:31.671Z,77.81
2023-02-18T00:49:43.591Z,77.71
2023-02-18T00:49:55.526Z,77.37
2023-02-18T00:50:08.939Z,77.32
2023-02-18T00:50:20.888Z,77.32
2023-02-18T00:50:32.787Z,77.48
2023-02-18T00:50:45.030Z,77.62
2023-02-18T00:50:56.932Z,77.39
2023-02-18T00:51:09.415Z,77.30
2023-02-18T00:51:22.746Z,77.02
2023-02-18T00:51:36.436Z,77.01
2023-02-18T00:51:48.394Z,77.08
2023-02-18T00:52:00.285Z,77.03
2023-02-18T00:52:12.218Z,77.04
2023-02-18T00:52:24.187Z,77.01
2023-02-18T00:52:36.094Z,76.98
2023-02-18T00:52:48.074Z,76.93
2023-02-18T00:53:00.030Z,77.10
2023-02-18T00:53:12.539Z,76.95
2023-02-18T00:53:24.634Z,76.78
2023-02-18T00:53:37.293Z,77.08
2023-02-18T00:53:49.986Z,77.43
2023-02-18T00:54:02.094Z,77.11
2023-02-18T00:54:14.030Z,77.17
2023-02-18T00:54:26.090Z,77.06
2023-02-18T00:54:37.990Z,77.46
2023-02-18T00:54:50.088Z,77.38
2023-02-18T00:55:02.078Z,77.53
2023-02-18T00:55:14.071Z,77.23
2023-02-18T00:55:25.987Z,77.41
2023-02-18T00:55:41.957Z,77.92
2023-02-18T00:55:53.846Z,77.46
2023-02-18T00:56:06.342Z,77.35
2023-02-18T00:56:18.948Z,77.34
2023-02-18T00:56:30.912Z,76.97
2023-02-18T00:56:42.847Z,76.97
2023-02-18T00:56:54.740Z,77.24
2023-02-18T00:57:06.768Z,77.32
2023-02-18T00:57:18.660Z,77.19
2023-02-18T00:57:30.617Z,77.20
2023-02-18T00:57:42.531Z,77.10
2023-02-18T00:57:54.481Z,77.24
2023-02-18T00:58:06.506Z,77.34
2023-02-18T00:58:18.499Z,77.24
2023-02-18T00:58:30.540Z,77.39
2023-02-18T00:58:42.772Z,77.39
2023-02-18T00:58:54.680Z,77.41
2023-02-18T00:59:06.689Z,77.49
2023-02-18T00:59:18.690Z,77.58
2023-02-18T00:59:30.591Z,77.21
2023-02-18T00:59:42.503Z,77.38
2023-02-18T00:59:54.432Z,77.32
2023-02-18T01:00:07.861Z,77.21
2023-02-18T01:00:20.153Z,77.11
2023-02-18T01:00:32.084Z,77.21
2023-02-18T01:00:44.802Z,77.24
2023-02-18T01:00:56.980Z,77.37
2023-02-18T01:01:10.608Z,77.28
2023-02-18T01:01:22.925Z,77.20
2023-02-18T01:01:35.257Z,77.37
2023-02-18T01:01:47.426Z,77.38
2023-02-18T01:01:59.415Z,77.64
2023-02-18T01:02:11.354Z,77.36
2023-02-18T01:02:23.423Z,77.63
2023-02-18T01:02:35.615Z,77.60
2023-02-18T01:02:47.501Z,77.68
2023-02-18T01:02:59.608Z,77.35
2023-02-18T01:03:11.926Z,77.32
2023-02-18T01:03:24.415Z,77.50
2023-02-18T01:03:37.852Z,77.23
2023-02-18T01:03:51.599Z,77.22
2023-02-18T01:04:03.670Z,77.42
2023-02-18T01:04:15.714Z,77.51
2023-02-18T01:04:27.669Z,77.59
2023-02-18T01:04:39.631Z,77.70
2023-02-18T01:04:51.745Z,77.44
2023-02-18T01:05:03.951Z,77.57
2023-02-18T01:05:15.922Z,77.33
2023-02-18T01:05:28.817Z,77.42
2023-02-18T01:05:42.088Z,77.38
2023-02-18T01:05:56.818Z,77.72
2023-02-18T01:06:10.408Z,77.58
2023-02-18T01:06:22.532Z,77.92
2023-02-18T01:06:34.677Z,77.94
2023-02-18T01:06:46.586Z,77.93
2023-02-18T01:06:58.524Z,77.95
2023-02-18T01:07:10.805Z,78.03
2023-02-18T01:07:22.774Z,77.72
2023-02-18T01:07:34.717Z,77.74
2023-02-18T01:07:46.776Z,78.00
2023-02-18T01:07:59.033Z,78.18
2023-02-18T01:08:11.685Z,77.78
2023-02-18T01:08:23.767Z,77.56
2023-02-18T01:08:36.427Z,77.59
2023-02-18T01:08:49.887Z,77.68
2023-02-18T01:09:01.806Z,77.51
2023-02-18T01:09:14.652Z,77.45
2023-02-18T01:09:26.697Z,77.63
2023-02-18T01:09:39.526Z,77.82
2023-02-18T01:09:51.487Z,77.93
2023-02-18T01:10:04.636Z,78.16
2023-02-18T01:10:18.924Z,78.58
2023-02-18T01:10:31.524Z,78.45
2023-02-18T01:10:46.017Z,78.40
2023-02-18T01:10:59.315Z,78.36
2023-02-18T01:11:13.288Z,78.35
2023-02-18T01:11:25.454Z,78.22
2023-02-18T01:11:41.429Z,78.23
2023-02-18T01:11:53.381Z,77.98
2023-02-18T01:12:08.517Z,78.04
2023-02-18T01:12:20.431Z,77.98
2023-02-18T01:12:32.347Z,78.06
2023-02-18T01:12:47.356Z,78.18
2023-02-18T01:12:59.384Z,78.65
2023-02-18T01:13:12.148Z,78.40
2023-02-18T01:13:26.643Z,78.72
2023-02-18T01:13:39.236Z,78.68
2023-02-18T01:13:51.893Z,78.81
2023-02-18T01:14:03.994Z,78.89
2023-02-18T01:14:16.467Z,78.93
2023-02-18T01:14:28.570Z,78.64
2023-02-18T01:14:41.617Z,78.99
2023-02-18T01:14:53.705Z,78.77
2023-02-18T01:15:06.881Z,78.46
2023-02-18T01:15:21.261Z,78.66
2023-02-18T01:15:33.485Z,78.90
2023-02-18T01:15:46.509Z,79.18
2023-02-18T01:15:58.467Z,79.01
2023-02-18T01:16:11.084Z,78.76
2023-02-18T01:16:24.586Z,79.21
2023-02-18T01:16:37.006Z,78.52
2023-02-18T01:16:48.947Z,78.36
2023-02-18T01:17:00.909Z,78.64
2023-02-18T01:17:12.851Z,78.49
2023-02-18T01:17:24.781Z,78.65
2023-02-18T01:17:36.810Z,78.76
2023-02-18T01:17:51.722Z,78.69
2023-02-18T01:18:04.837Z,78.87
2023-02-18T01:18:17.090Z,78.69
2023-02-18T01:18:29.040Z,79.01
2023-02-18T01:18:40.967Z,78.85
2023-02-18T01:18:53.458Z,78.57
2023-02-18T01:19:05.370Z,78.88
2023-02-18T01:19:17.321Z,78.54
2023-02-18T01:19:29.224Z,78.68
2023-02-18T01:19:41.134Z,78.81
2023-02-18T01:19:53.154Z,78.49
2023-02-18T01:20:05.831Z,78.78
2023-02-18T01:20:19.429Z,78.94
2023-02-18T01:20:31.904Z,78.99
2023-02-18T01:20:47.682Z,78.98
2023-02-18T01:20:59.670Z,79.08
2023-02-18T01:21:11.673Z,79.16
2023-02-18T01:21:23.658Z,79.03
2023-02-18T01:21:35.638Z,79.03
2023-02-18T01:21:48.531Z,78.74
2023-02-18T01:22:00.792Z,78.57
2023-02-18T01:22:12.911Z,78.62
2023-02-18T01:22:24.853Z,78.72
2023-02-18T01:22:37.535Z,78.43
2023-02-18T01:22:49.712Z,79.21
2023-02-18T01:23:01.593Z,79.13
2023-02-18T01:23:14.554Z,79.31
2023-02-18T01:23:26.981Z,79.37
2023-02-18T01:23:42.233Z,79.67
2023-02-18T01:23:54.217Z,79.53
2023-02-18T01:24:06.439Z,79.21
2023-02-18T01:24:18.372Z,79.28
2023-02-18T01:24:30.317Z,79.34
2023-02-18T01:24:42.273Z,79.24
2023-02-18T01:24:54.221Z,79.18
2023-02-18T01:25:08.177Z,78.91
2023-02-18T01:25:20.294Z,79.00
2023-02-18T01:25:33.170Z,78.63
2023-02-18T01:25:45.602Z,79.16
2023-02-18T01:25:58.376Z,79.17
2023-02-18T01:26:11.432Z,78.85
2023-02-18T01:26:23.616Z,79.04
2023-02-18T01:26:35.633Z,78.98
2023-02-18T01:26:47.582Z,79.11
2023-02-18T01:26:59.631Z,78.97
2023-02-18T01:27:11.571Z,79.01
2023-02-18T01:27:23.521Z,78.99
2023-02-18T01:27:36.089Z,79.39
2023-02-18T01:27:48.500Z,79.25
2023-02-18T01:28:00.415Z,79.65
2023-02-18T01:28:14.088Z,79.83
2023-02-18T01:28:26.678Z,79.55
2023-02-18T01:28:40.868Z,79.16
2023-02-18T01:28:52.948Z,79.24
2023-02-18T01:29:04.904Z,79.65
2023-02-18T01:29:16.846Z,79.26
2023-02-18T01:29:29.637Z,79.70
2023-02-18T01:29:41.554Z,79.42
2023-02-18T01:29:53.479Z,79.51
2023-02-18T01:30:07.227Z,79.44
2023-02-18T01:30:20.705Z,79.39
2023-02-18T01:30:36.254Z,79.60
2023-02-18T01:30:48.206Z,79.59
2023-02-18T01:31:07.353Z,79.12
2023-02-18T01:31:19.523Z,79.20
2023-02-18T01:31:31.653Z,79.00
2023-02-18T01:31:43.646Z,79.15
2023-02-18T01:31:55.660Z,78.97
2023-02-18T01:32:07.861Z,79.14
2023-02-18T01:32:19.994Z,78.99
2023-02-18T01:32:32.065Z,78.90
2023-02-18T01:32:44.681Z,78.96
2023-02-18T01:32:57.923Z,78.91
2023-02-18T01:33:10.046Z,79.06
2023-02-18T01:33:24.392Z,78.90
2023-02-18T01:33:36.613Z,79.31
2023-02-18T01:33:48.541Z,78.93
2023-02-18T01:34:00.898Z,78.85
2023-02-18T01:34:12.822Z,79.09
2023-02-18T01:34:24.722Z,79.42
2023-02-18T01:34:36.627Z,79.48
2023-02-18T01:34:48.808Z,79.21
2023-02-18T01:35:02.730Z,79.35
2023-02-18T01:35:16.421Z,78.98
2023-02-18T01:35:28.557Z,78.60
2023-02-18T01:35:41.162Z,78.98
2023-02-18T01:35:53.993Z,78.96
2023-02-18T01:36:06.837Z,79.09
2023-02-18T01:36:19.042Z,79.37
2023-02-18T01:36:30.977Z,79.33
2023-02-18T01:36:42.873Z,79.49
2023-02-18T01:36:56.065Z,79.30
2023-02-18T01:37:08.103Z,79.59
2023-02-18T01:37:20.068Z,79.52
2023-02-18T01:37:32.034Z,79.05
2023-02-18T01:37:44.545Z,79.11
2023-02-18T01:37:56.503Z,79.28
2023-02-18T01:38:12.193Z,79.44
2023-02-18T01:38:24.124Z,79.27
2023-02-18T01:38:36.310Z,79.31
2023-02-18T01:38:48.232Z,79.06
2023-02-18T01:39:00.132Z,78.99
2023-02-18T01:39:12.098Z,79.19
2023-02-18T01:39:24.210Z,79.24
2023-02-18T01:39:36.112Z,79.25
2023-02-18T01:39:48.018Z,78.98
2023-02-18T01:39:59.981Z,79.19
2023-02-18T01:40:20.599Z,79.11
2023-02-18T01:40:32.920Z,79.08
2023-02-18T01:40:51.748Z,78.89
2023-02-18T01:41:04.147Z,79.29
2023-02-18T01:41:16.143Z,79.12
2023-02-18T01:41:28.271Z,79.37
2023-02-18T01:41:40.904Z,79.38
2023-02-18T01:41:52.858Z,79.13
2023-02-18T01:42:05.343Z,79.31
2023-02-18T01:42:24.698Z,79.34
2023-02-18T01:42:36.710Z,79.06
2023-02-18T01:42:49.606Z,79.20
2023-02-18T01:43:01.819Z,79.17
2023-02-18T01:43:14.550Z,79.05
2023-02-18T01:43:26.511Z,79.24
2023-02-18T01:43:38.910Z,79.03
2023-02-18T01:44:13.062Z,78.85
2023-02-18T01:44:27.757Z,78.82
2023-02-18T01:44:41.057Z,78.45
2023-02-18T01:44:53.807Z,78.40
2023-02-18T01:45:33.225Z,78.51
2023-02-18T01:45:55.894Z,78.38
2023-02-18T01:46:16.631Z,78.28
2023-02-18T01:46:28.555Z,78.33
2023-02-18T01:46:40.923Z,78.50
2023-02-18T01:46:54.056Z,78.30
2023-02-18T01:47:06.007Z,78.39
2023-02-18T01:47:19.164Z,78.27
2023-02-18T01:47:31.103Z,78.06
2023-02-18T01:47:43.006Z,78.17
2023-02-18T01:47:55.341Z,78.56
2023-02-18T01:48:11.938Z,78.20
2023-02-18T01:48:39.672Z,78.23
2023-02-18T01:48:56.626Z,78.29
2023-02-18T01:49:10.667Z,78.34
2023-02-18T01:49:28.141Z,78.53
2023-02-18T01:49:40.109Z,78.50
2023-02-18T01:49:53.793Z,78.15
2023-02-18T01:50:06.424Z,77.96
2023-02-18T01:50:18.360Z,78.18
2023-02-18T01:50:33.179Z,77.86
2023-02-18T01:50:49.823Z,77.96
2023-02-18T01:51:13.843Z,77.79
2023-02-18T01:51:29.918Z,77.32
2023-02-18T01:51:48.770Z,77.54
2023-02-18T01:52:05.221Z,77.40
2023-02-18T01:52:21.124Z,77.46
2023-02-18T01:52:33.147Z,77.57
2023-02-18T01:52:45.098Z,77.49
2023-02-18T01:52:57.333Z,77.30
2023-02-18T01:53:09.984Z,77.70
2023-02-18T01:53:27.587Z,77.47
2023-02-18T01:53:42.274Z,77.97
2023-02-18T01:54:05.272Z,78.00
2023-02-18T01:54:35.763Z,77.93
2023-02-18T01:54:50.141Z,77.70
2023-02-18T01:55:02.167Z,77.36
2023-02-18T01:55:14.104Z,77.38
2023-02-18T01:55:26.971Z,77.20
2023-02-18T01:55:39.344Z,77.24
2023-02-18T01:55:51.329Z,77.27
2023-02-18T01:56:06.610Z,77.19
2023-02-18T01:56:34.293Z,77.37
2023-02-18T01:56:59.882Z,76.75
2023-02-18T01:57:25.481Z,76.76
2023-02-18T01:57:38.706Z,77.01
2023-02-18T01:57:50.697Z,76.81
2023-02-18T01:58:06.352Z,76.98
2023-02-18T01:58:18.679Z,76.95
2023-02-18T01:58:31.377Z,76.78
2023-02-18T01:58:43.717Z,76.91
2023-02-18T01:58:58.027Z,76.62
2023-02-18T01:59:14.359Z,76.90
2023-02-18T01:59:30.958Z,76.62
2023-02-18T01:59:48.698Z,76.64
2023-02-18T02:00:07.606Z,76.65
2023-02-18T02:00:23.638Z,76.67
2023-02-18T02:00:36.925Z,76.57
2023-02-18T02:00:48.996Z,76.83
2023-02-18T02:01:01.117Z,76.76
2023-02-18T02:01:13.213Z,76.96
2023-02-18T02:01:26.652Z,76.76
2023-02-18T02:01:42.454Z,76.75
2023-02-18T02:01:55.659Z,76.87
2023-02-18T02:02:14.057Z,76.52
2023-02-18T02:02:29.639Z,76.50
2023-02-18T02:02:46.114Z,76.74
2023-02-18T02:02:58.208Z,76.69
2023-02-18T02:03:13.163Z,77.14
2023-02-18T02:03:25.135Z,77.19
2023-02-18T02:03:39.279Z,77.15
2023-02-18T02:03:51.269Z,76.98
2023-02-18T02:04:03.600Z,76.73
2023-02-18T02:04:15.646Z,76.90
2023-02-18T02:04:27.587Z,76.69
2023-02-18T02:04:40.459Z,76.58
2023-02-18T02:04:53.080Z,76.75
2023-02-18T02:05:05.224Z,76.46
2023-02-18T02:05:18.356Z,76.50
2023-02-18T02:05:32.837Z,76.56
2023-02-18T02:05:44.828Z,76.36
2023-02-18T02:05:56.747Z,76.30
2023-02-18T02:06:20.607Z,76.41
2023-02-18T02:06:32.738Z,76.79
2023-02-18T02:06:44.775Z,76.61
2023-02-18T02:06:56.674Z,76.53
2023-02-18T02:07:09.091Z,76.50
2023-02-18T02:07:24.128Z,76.48
2023-02-18T02:07:36.230Z,76.81
2023-02-18T02:07:54.944Z,76.63
2023-02-18T02:08:07.356Z,76.78
2023-02-18T02:08:19.322Z,76.77
2023-02-18T02:08:31.228Z,76.50
2023-02-18T02:08:46.021Z,76.89
2023-02-18T02:09:01.891Z,76.88
2023-02-18T02:09:17.453Z,76.95
2023-02-18T02:09:32.449Z,76.68
2023-02-18T02:09:45.418Z,76.42
2023-02-18T02:10:00.629Z,76.40
2023-02-18T02:10:14.273Z,76.55
2023-02-18T02:10:35.222Z,76.74
2023-02-18T02:11:02.864Z,76.73
2023-02-18T02:11:39.316Z,76.74
2023-02-18T02:12:21.876Z,76.98
2023-02-18T02:12:36.304Z,77.13
2023-02-18T02:13:06.417Z,76.71
2023-02-18T02:13:26.767Z,76.83
2023-02-18T02:13:50.820Z,76.95
2023-02-18T02:14:08.337Z,76.84
2023-02-18T02:14:50.847Z,77.16
2023-02-18T02:15:15.770Z,77.42
2023-02-18T02:15:33.926Z,77.10
2023-02-18T02:15:48.416Z,77.57
2023-02-18T02:16:31.145Z,77.50
2023-02-18T02:17:13.590Z,77.88
2023-02-18T02:17:31.543Z,77.58
2023-02-18T02:18:10.414Z,77.64
2023-02-18T02:18:28.284Z,77.35
2023-02-18T02:19:04.439Z,77.35
2023-02-18T02:19:25.065Z,77.29
2023-02-18T02:19:51.916Z,77.15
2023-02-18T02:20:14.867Z,77.05
2023-02-18T02:20:38.833Z,77.18
2023-02-18T02:21:28.846Z,77.41
2023-02-18T02:22:03.313Z,77.31
2023-02-18T02:22:40.804Z,77.23
2023-02-18T02:23:34.006Z,77.45
2023-02-18T02:24:22.755Z,77.40
2023-02-18T02:24:58.329Z,77.42
2023-02-18T02:25:26.287Z,77.37
2023-02-18T02:25:58.676Z,77.54
2023-02-18T02:26:40.761Z,77.33
2023-02-18T02:27:04.569Z,77.46
2023-02-18T02:27:35.395Z,76.99
2023-02-18T02:27:53.112Z,76.62
2023-02-18T02:28:21.945Z,76.87
2023-02-18T02:28:58.024Z,77.01
2023-02-18T02:29:39.222Z,77.18
2023-02-18T02:30:18.319Z,77.51
2023-02-18T02:30:55.119Z,77.77
2023-02-18T02:31:35.685Z,77.97
2023-02-18T02:32:05.941Z,77.39
2023-02-18T02:33:18.881Z,77.58
2023-02-18T02:34:24.603Z,77.56
2023-02-18T02:35:08.275Z,77.41
2023-02-18T02:35:26.121Z,77.27
2023-02-18T02:35:42.462Z,77.20
2023-02-18T02:36:13.375Z,76.83
2023-02-18T02:36:48.463Z,77.13
2023-02-18T02:37:25.844Z,77.80
2023-02-18T02:38:04.947Z,78.36
2023-02-18T02:38:28.740Z,77.73
2023-02-18T02:38:47.352Z,77.79
2023-02-18T02:39:28.951Z,77.74
2023-02-18T02:39:51.889Z,77.89
2023-02-18T02:40:20.560Z,78.11
2023-02-18T02:40:38.310Z,78.05
2023-02-18T02:41:21.764Z,77.65
2023-02-18T02:42:03.076Z,77.75
2023-02-18T02:42:37.557Z,77.88
2023-02-18T02:43:10.733Z,77.64
2023-02-18T02:43:44.255Z,77.84
2023-02-18T02:44:07.423Z,77.61
2023-02-18T02:44:42.389Z,77.50
2023-02-18T02:45:28.992Z,77.55
2023-02-18T02:45:59.406Z,77.83
2023-02-18T02:46:15.761Z,78.19
2023-02-18T02:46:57.270Z,77.86
2023-02-18T02:47:17.979Z,77.90
2023-02-18T02:47:41.745Z,78.36
2023-02-18T02:48:18.110Z,78.21
2023-02-18T02:48:40.471Z,78.42
2023-02-18T02:49:08.056Z,78.46
2023-02-18T02:49:22.727Z,78.82
2023-02-18T02:49:44.476Z,79.36
2023-02-18T02:50:09.591Z,79.11
2023-02-18T02:50:36.515Z,79.01
2023-02-18T02:51:06.924Z,78.66
2023-02-18T02:51:26.308Z,78.86
2023-02-18T02:51:48.061Z,79.01
2023-02-18T02:52:05.282Z,79.31
2023-02-18T02:52:33.728Z,79.31
2023-02-18T02:52:50.241Z,79.15
2023-02-18T02:53:10.418Z,79.26
2023-02-18T02:53:28.779Z,78.98
2023-02-18T02:53:42.966Z,78.90
2023-02-18T02:54:08.201Z,79.00
2023-02-18T02:54:24.127Z,79.02
2023-02-18T02:54:36.199Z,79.45
2023-02-18T02:54:48.213Z,79.46
2023-02-18T02:55:00.629Z,79.72
2023-02-18T02:55:13.549Z,79.39
2023-02-18T02:55:25.771Z,79.59
2023-02-18T02:55:37.681Z,79.08
2023-02-18T02:55:49.628Z,78.98
2023-02-18T02:56:02.246Z,79.17
2023-02-18T02:56:17.084Z,79.19
2023-02-18T02:56:29.245Z,79.16
2023-02-18T02:56:41.573Z,79.43
2023-02-18T02:57:07.353Z,79.63
2023-02-18T02:57:19.248Z,79.47
2023-02-18T02:57:31.216Z,79.61
2023-02-18T02:57:55.576Z,80.05
2023-02-18T02:58:07.586Z,79.91
2023-02-18T02:58:19.929Z,79.76
2023-02-18T02:58:32.348Z,79.49
2023-02-18T02:58:47.773Z,79.28
2023-02-18T02:59:03.329Z,78.96
2023-02-18T02:59:20.272Z,79.19
2023-02-18T02:59:33.086Z,79.06
2023-02-18T02:59:51.260Z,79.06
2023-02-18T03:00:10.304Z,78.63
2023-02-18T03:00:31.879Z,78.54
2023-02-18T03:01:35.373Z,78.53
2023-02-18T03:02:11.583Z,78.74
2023-02-18T03:02:58.288Z,78.82
2023-02-18T03:03:13.030Z,78.48
2023-02-18T03:03:43.889Z,78.15
2023-02-18T03:04:22.848Z,78.40
2023-02-18T03:04:53.146Z,78.85
2023-02-18T03:05:17.072Z,79.31
2023-02-18T03:05:46.996Z,79.35
2023-02-18T03:06:10.500Z,78.94
2023-02-18T03:06:54.463Z,78.79
2023-02-18T03:07:11.720Z,79.30
2023-02-18T03:07:46.959Z,79.16
2023-02-18T03:08:38.690Z,79.07
2023-02-18T03:09:17.670Z,78.99
2023-02-18T03:10:03.333Z,78.61
2023-02-18T03:10:23.921Z,78.56
2023-02-18T03:10:41.419Z,78.81
2023-02-18T03:11:14.183Z,79.43
2023-02-18T03:11:32.529Z,78.91
2023-02-18T03:12:07.088Z,79.48
2023-02-18T03:12:31.155Z,79.32
2023-02-18T03:13:00.696Z,79.15
2023-02-18T03:13:40.318Z,79.50
2023-02-18T03:14:22.750Z,79.40
2023-02-18T03:14:40.235Z,79.53
2023-02-18T03:15:07.170Z,79.10
2023-02-18T03:15:41.449Z,79.03
2023-02-18T03:15:59.306Z,79.15
2023-02-18T03:16:23.974Z,78.89
2023-02-18T03:16:46.454Z,78.95
2023-02-18T03:17:22.284Z,78.89
2023-02-18T03:17:47.507Z,79.13
2023-02-18T03:18:17.812Z,79.56
2023-02-18T03:18:46.132Z,79.97
2023-02-18T03:19:32.730Z,79.95
2023-02-18T03:19:52.808Z,80.23
2023-02-18T03:20:16.308Z,79.78
2023-02-18T03:20:28.293Z,79.77
2023-02-18T03:20:47.049Z,79.98
2023-02-18T03:21:01.551Z,79.97
2023-02-18T03:21:18.676Z,79.99
2023-02-18T03:21:32.901Z,80.08
2023-02-18T03:22:00.007Z,79.82
2023-02-18T03:22:34.701Z,80.47
2023-02-18T03:22:50.276Z,80.18
2023-02-18T03:23:10.778Z,80.67
2023-02-18T03:23:29.576Z,80.71
2023-02-18T03:23:53.506Z,80.61
2023-02-18T03:24:23.700Z,80.75
2023-02-18T03:24:40.742Z,80.04
2023-02-18T03:24:56.323Z,79.58
2023-02-18T03:25:10.307Z,79.80
2023-02-18T03:25:23.967Z,79.68
2023-02-18T03:25:38.648Z,79.83
2023-02-18T03:25:51.119Z,79.74
2023-02-18T03:26:06.311Z,79.75
2023-02-18T03:26:19.708Z,79.96
2023-02-18T03:26:34.323Z,80.14
2023-02-18T03:26:50.429Z,80.10
2023-02-18T03:27:20.042Z,79.63
2023-02-18T03:27:52.376Z,79.37
2023-02-18T03:28:12.538Z,80.08
2023-02-18T03:28:28.581Z,79.87